createdAt,value
2019-01-04T00:00:53.077Z,3.37
2019-01-04T00:03:21.474Z,2.97
2019-01-04T00:05:50.247Z,2.70
2019-01-04T00:08:18.648Z,2.60
2019-01-04T00:10:47.045Z,2.47
2019-01-04T00:13:15.453Z,2.60
2019-01-04T00:15:43.851Z,2.83
2019-01-04T00:18:12.260Z,3.23
2019-01-04T00:20:41.540Z,3.37
2019-01-04T00:23:09.972Z,2.90
2019-01-04T00:25:38.368Z,2.60
2019-01-04T00:28:06.781Z,2.50
2019-01-04T00:30:35.177Z,2.40
2019-01-04T00:33:03.580Z,2.60
2019-01-04T00:35:31.983Z,2.63
2019-01-04T00:38:00.384Z,2.90
2019-01-04T00:40:30.428Z,3.23
2019-01-04T00:42:58.829Z,2.70
2019-01-04T00:45:27.289Z,3.40
2019-01-04T00:47:55.763Z,2.77
2019-01-04T00:50:24.355Z,4.10
2019-01-04T00:52:52.888Z,2.87
2019-01-04T00:55:27.396Z,2.83
2019-01-04T00:58:01.778Z,3.20
2019-01-04T01:00:42.313Z,4.50
2019-01-04T01:03:25.932Z,4.53
2019-01-04T01:06:13.630Z,3.43
2019-01-04T01:08:56.968Z,2.77
2019-01-04T01:11:51.281Z,3.07
2019-01-04T01:14:28.820Z,3.07
2019-01-04T01:17:27.288Z,3.20
2019-01-04T01:20:16.558Z,2.33
2019-01-04T01:23:06.070Z,3.10
2019-01-04T01:25:59.976Z,2.70
2019-01-04T01:29:01.579Z,2.77
2019-01-04T01:31:52.700Z,2.50
2019-01-04T01:34:26.952Z,3.43
2019-01-04T01:37:15.093Z,2.87
2019-01-04T01:40:08.953Z,2.90
2019-01-04T01:42:42.932Z,2.63
2019-01-04T01:45:41.582Z,3.07
2019-01-04T01:48:11.721Z,3.63
2019-01-04T01:51:15.015Z,2.33
2019-01-04T01:53:44.763Z,2.73
2019-01-04T01:56:13.167Z,2.90
2019-01-04T01:58:41.570Z,2.93
2019-01-04T02:01:11.516Z,2.73
2019-01-04T02:03:39.911Z,2.07
2019-01-04T02:06:08.340Z,3.00
2019-01-04T02:08:36.746Z,2.40
2019-01-04T02:11:05.165Z,2.33
2019-01-04T02:13:33.556Z,3.00
2019-01-04T02:16:02.299Z,2.33
2019-01-04T02:18:32.105Z,2.67
2019-01-04T02:21:00.536Z,2.30
2019-01-04T02:23:28.932Z,2.27
2019-01-04T02:25:57.348Z,2.43
2019-01-04T02:28:25.739Z,2.63
2019-01-04T02:30:54.149Z,2.73
2019-01-04T02:33:22.543Z,1.73
2019-01-04T02:35:51.060Z,2.53
2019-01-04T02:38:19.468Z,2.77
2019-01-04T02:40:47.875Z,2.87
2019-01-04T02:43:16.275Z,1.53
2019-01-04T02:45:44.684Z,2.07
2019-01-04T02:48:13.084Z,3.30
2019-01-04T02:50:41.489Z,1.50
2019-01-04T02:53:09.935Z,2.20
2019-01-04T02:55:38.367Z,2.20
2019-01-04T02:58:06.814Z,2.53
2019-01-04T03:00:35.248Z,2.40
2019-01-04T03:03:03.647Z,2.33
2019-01-04T03:05:32.320Z,2.37
2019-01-04T03:08:00.720Z,1.80
2019-01-04T03:10:29.117Z,1.90
2019-01-04T03:12:57.524Z,1.83
2019-01-04T03:15:25.939Z,2.00
2019-01-04T03:17:54.350Z,2.47
2019-01-04T03:20:22.745Z,1.90
2019-01-04T03:22:51.158Z,1.70
2019-01-04T03:25:19.561Z,2.30
2019-01-04T03:27:47.976Z,2.10
2019-01-04T03:30:16.382Z,2.37
2019-01-04T03:32:44.805Z,2.93
2019-01-04T03:35:14.281Z,2.60
2019-01-04T03:37:43.688Z,2.10
2019-01-04T03:40:12.070Z,2.27
2019-01-04T03:42:40.480Z,2.83
2019-01-04T03:45:08.885Z,2.87
2019-01-04T03:47:37.309Z,2.90
2019-01-04T03:50:06.530Z,3.97
2019-01-04T03:52:34.933Z,3.40
2019-01-04T03:55:03.868Z,3.83
2019-01-04T03:57:32.276Z,3.53
2019-01-04T04:00:00.688Z,3.93
2019-01-04T04:02:29.152Z,3.83
2019-01-04T04:04:57.682Z,4.17
2019-01-04T04:07:26.105Z,4.10
2019-01-04T04:09:54.492Z,5.07
2019-01-04T04:12:22.906Z,4.70
2019-01-04T04:14:51.340Z,4.43
2019-01-04T04:17:19.747Z,4.63
2019-01-04T04:19:48.156Z,4.93
2019-01-04T04:22:16.568Z,6.53
2019-01-04T04:24:44.977Z,5.70
2019-01-04T04:27:13.395Z,5.73
2019-01-04T04:29:41.947Z,7.10
2019-01-04T04:32:10.348Z,6.10
2019-01-04T04:34:38.752Z,5.00
2019-01-04T04:37:07.304Z,5.60
2019-01-04T04:39:35.709Z,6.23
2019-01-04T04:42:04.168Z,6.33
2019-01-04T04:44:32.587Z,6.23
2019-01-04T04:47:00.976Z,6.03
2019-01-04T04:49:29.387Z,6.67
2019-01-04T04:51:57.788Z,6.03
2019-01-04T04:54:26.200Z,6.83
2019-01-04T04:56:54.596Z,7.10
2019-01-04T04:59:23.026Z,7.27
2019-01-04T05:01:51.429Z,7.10
2019-01-04T05:04:19.904Z,7.50
2019-01-04T05:06:48.305Z,7.30
2019-01-04T05:09:16.728Z,7.33
2019-01-04T05:11:45.133Z,7.30
2019-01-04T05:14:13.536Z,7.80
2019-01-04T05:16:41.949Z,7.37
2019-01-04T05:19:10.408Z,6.70
2019-01-04T05:21:38.824Z,8.10
2019-01-04T05:24:07.223Z,7.33
2019-01-04T05:26:35.702Z,8.00
2019-01-04T05:29:04.116Z,7.30
2019-01-04T05:31:32.578Z,6.03
2019-01-04T05:34:00.995Z,8.50
2019-01-04T05:36:29.419Z,7.83
2019-01-04T05:38:57.818Z,8.50
2019-01-04T05:41:26.216Z,9.50
2019-01-04T05:43:54.615Z,9.00
2019-01-04T05:46:23.025Z,9.07
2019-01-04T05:48:51.423Z,7.87
2019-01-04T05:51:19.831Z,8.30
2019-01-04T05:53:48.306Z,8.57
2019-01-04T05:56:16.737Z,7.87
2019-01-04T05:58:45.132Z,7.67
2019-01-04T06:01:13.542Z,8.50
2019-01-04T06:03:41.946Z,8.70
2019-01-04T06:06:10.512Z,8.07
2019-01-04T06:08:38.912Z,7.60
2019-01-04T06:11:07.324Z,7.00
2019-01-04T06:13:35.726Z,7.67
2019-01-04T06:16:04.264Z,7.40
2019-01-04T06:18:32.673Z,7.23
2019-01-04T06:21:01.071Z,7.70
2019-01-04T06:23:29.489Z,8.70
2019-01-04T06:25:57.884Z,6.67
2019-01-04T06:28:26.807Z,7.80
2019-01-04T06:30:55.188Z,8.37
2019-01-04T06:33:23.753Z,6.90
2019-01-04T06:35:52.157Z,7.10
2019-01-04T06:38:20.559Z,7.27
2019-01-04T06:40:50.603Z,6.90
2019-01-04T06:43:19.394Z,6.20
2019-01-04T06:45:47.845Z,6.90
2019-01-04T06:48:16.304Z,6.83
2019-01-04T06:50:44.702Z,6.37
2019-01-04T06:53:13.116Z,5.90
2019-01-04T06:55:51.138Z,6.30
2019-01-04T06:58:19.667Z,6.47
2019-01-04T07:00:48.176Z,6.67
2019-01-04T07:03:16.673Z,5.73
2019-01-04T07:05:45.100Z,5.37
2019-01-04T07:08:13.507Z,4.93
2019-01-04T07:10:42.340Z,5.10
2019-01-04T07:13:12.132Z,5.33
2019-01-04T07:15:40.715Z,5.20
2019-01-04T07:18:09.291Z,5.90
2019-01-04T07:20:37.836Z,4.47
2019-01-04T07:23:06.220Z,4.40
2019-01-04T07:25:34.636Z,3.70
2019-01-04T07:28:03.208Z,3.43
2019-01-04T07:30:31.615Z,3.30
2019-01-04T07:33:00.019Z,3.40
2019-01-04T07:35:28.434Z,3.47
2019-01-04T07:37:56.828Z,3.90
2019-01-04T07:40:25.236Z,3.90
2019-01-04T07:42:53.688Z,4.10
2019-01-04T07:45:22.100Z,4.07
2019-01-04T07:47:50.502Z,3.80
2019-01-04T07:50:18.918Z,4.23
2019-01-04T07:52:47.319Z,3.93
2019-01-04T07:55:15.719Z,4.27
2019-01-04T07:57:44.124Z,3.80
2019-01-04T08:00:13.004Z,3.00
2019-01-04T08:02:43.173Z,3.80
2019-01-04T08:05:14.391Z,5.03
2019-01-04T08:07:42.788Z,5.10
2019-01-04T08:10:11.457Z,4.17
2019-01-04T08:12:39.852Z,4.80
2019-01-04T08:15:10.579Z,5.07
2019-01-04T08:17:38.989Z,3.23
2019-01-04T08:20:10.413Z,4.67
2019-01-04T08:22:38.816Z,4.70
2019-01-04T08:25:08.405Z,5.60
2019-01-04T08:27:36.886Z,4.77
2019-01-04T08:30:10.668Z,4.73
2019-01-04T08:32:39.073Z,4.67
2019-01-04T08:35:07.713Z,3.97
2019-01-04T08:37:36.132Z,3.93
2019-01-04T08:40:07.052Z,3.30
2019-01-04T08:42:35.456Z,3.77
2019-01-04T08:45:04.323Z,3.97
2019-01-04T08:47:32.740Z,5.80
2019-01-04T08:50:01.127Z,2.37
2019-01-04T08:52:29.579Z,3.53
2019-01-04T08:54:57.980Z,3.20
2019-01-04T08:57:26.384Z,3.10
2019-01-04T08:59:54.789Z,2.97
2019-01-04T09:02:23.390Z,2.93
2019-01-04T09:04:51.789Z,2.83
2019-01-04T09:07:20.201Z,2.93
2019-01-04T09:09:48.607Z,4.00
2019-01-04T09:12:17.020Z,4.27
2019-01-04T09:14:45.409Z,3.57
2019-01-04T09:17:13.816Z,3.07
2019-01-04T09:19:42.215Z,3.90
2019-01-04T09:22:10.626Z,3.50
2019-01-04T09:24:39.060Z,4.23
2019-01-04T09:27:07.465Z,3.40
2019-01-04T09:29:35.865Z,3.23
2019-01-04T09:32:04.272Z,3.67
2019-01-04T09:34:32.679Z,3.20
2019-01-04T09:37:01.187Z,3.47
2019-01-04T09:39:30.273Z,2.50
2019-01-04T09:42:00.412Z,2.70
2019-01-04T09:44:28.821Z,2.93
2019-01-04T09:46:57.226Z,3.53
2019-01-04T09:49:25.636Z,4.03
2019-01-04T09:51:54.049Z,2.90
2019-01-04T09:54:23.244Z,2.53
2019-01-04T09:56:51.645Z,3.47
2019-01-04T09:59:20.053Z,3.67
2019-01-04T10:01:48.557Z,3.00
2019-01-04T10:04:16.964Z,3.10
2019-01-04T10:06:45.503Z,2.10
2019-01-04T10:09:13.916Z,4.27
2019-01-04T10:11:42.317Z,3.17
2019-01-04T10:14:12.264Z,4.70
2019-01-04T10:16:40.661Z,5.37
2019-01-04T10:19:09.073Z,4.53
2019-01-04T10:21:37.468Z,4.13
2019-01-04T10:24:07.136Z,4.17
2019-01-04T10:26:35.536Z,4.53
2019-01-04T10:29:03.944Z,4.23
2019-01-04T10:31:32.352Z,4.40
2019-01-04T10:34:00.750Z,4.60
2019-01-04T10:36:29.156Z,4.90
2019-01-04T10:38:57.612Z,4.80
2019-01-04T10:41:26.031Z,4.03
2019-01-04T10:43:54.431Z,3.27
2019-01-04T10:46:23.040Z,4.03
2019-01-04T10:48:51.436Z,3.83
2019-01-04T10:51:19.852Z,4.47
2019-01-04T10:53:48.254Z,6.13
2019-01-04T10:56:16.668Z,4.20
2019-01-04T10:58:45.188Z,4.40
2019-01-04T11:01:13.597Z,4.20
2019-01-04T11:03:41.996Z,4.47
2019-01-04T11:06:10.408Z,4.80
2019-01-04T11:08:38.811Z,4.93
2019-01-04T11:11:07.220Z,3.70
2019-01-04T11:13:35.708Z,5.03
2019-01-04T11:16:04.125Z,4.73
2019-01-04T11:18:32.872Z,3.57
2019-01-04T11:21:01.468Z,5.83
2019-01-04T11:23:48.146Z,4.23
2019-01-04T11:26:34.708Z,3.03
2019-01-04T11:29:06.176Z,3.23
2019-01-04T11:31:49.327Z,3.90
2019-01-04T11:34:40.108Z,3.30
2019-01-04T11:37:11.828Z,3.53
2019-01-04T11:39:43.586Z,5.20
2019-01-04T11:42:17.774Z,2.90
2019-01-04T11:44:55.184Z,4.20
2019-01-04T11:47:32.315Z,5.13
2019-01-04T11:50:12.729Z,4.30
2019-01-04T11:52:43.899Z,4.07
2019-01-04T11:55:12.317Z,3.47
2019-01-04T11:57:40.821Z,4.63
2019-01-04T12:00:11.438Z,3.07
2019-01-04T12:02:39.841Z,3.53
2019-01-04T12:05:10.684Z,2.97
2019-01-04T12:07:39.100Z,3.43
2019-01-04T12:10:07.873Z,3.03
2019-01-04T12:12:36.288Z,3.67
2019-01-04T12:15:06.633Z,4.17
2019-01-04T12:17:35.040Z,3.03
2019-01-04T12:20:04.577Z,3.60
2019-01-04T12:22:32.995Z,3.80
2019-01-04T12:25:01.465Z,3.70
2019-01-04T12:27:32.252Z,4.90
2019-01-04T12:30:00.652Z,5.83
2019-01-04T12:32:29.057Z,4.17
2019-01-04T12:34:57.465Z,4.37
2019-01-04T12:37:25.870Z,3.20
2019-01-04T12:39:54.278Z,5.47
2019-01-04T12:42:22.698Z,5.40
2019-01-04T12:44:51.101Z,4.27
2019-01-04T12:47:19.552Z,5.40
2019-01-04T12:49:48.142Z,5.27
2019-01-04T12:52:16.706Z,4.67
2019-01-04T12:54:45.115Z,4.97
2019-01-04T12:57:13.515Z,6.40
2019-01-04T12:59:41.923Z,4.47
2019-01-04T13:02:10.327Z,4.33
2019-01-04T13:04:38.740Z,3.90
2019-01-04T13:07:07.140Z,4.70
2019-01-04T13:09:35.560Z,5.10
2019-01-04T13:12:04.245Z,5.50
2019-01-04T13:14:32.728Z,4.10
2019-01-04T13:17:01.134Z,4.03
2019-01-04T13:19:29.555Z,5.40
2019-01-04T13:21:57.953Z,5.40
2019-01-04T13:24:26.359Z,6.60
2019-01-04T13:26:54.769Z,5.40
2019-01-04T13:29:23.176Z,4.67
2019-01-04T13:31:51.584Z,5.77
2019-01-04T13:34:19.985Z,4.60
2019-01-04T13:36:50.603Z,4.80
2019-01-04T13:39:19.009Z,4.23
2019-01-04T13:41:47.418Z,4.80
2019-01-04T13:44:15.814Z,4.53
2019-01-04T13:46:44.238Z,4.47
2019-01-04T13:49:12.640Z,6.07
2019-01-04T13:51:41.054Z,5.17
2019-01-04T13:54:09.461Z,5.03
2019-01-04T13:56:37.872Z,4.40
2019-01-04T13:59:06.278Z,6.17
2019-01-04T14:01:34.689Z,4.93
2019-01-04T14:04:03.079Z,4.50
2019-01-04T14:06:31.488Z,3.90
2019-01-04T14:08:59.892Z,4.90
2019-01-04T14:11:28.298Z,3.90
2019-01-04T14:13:56.697Z,4.97
2019-01-04T14:16:25.142Z,3.77
2019-01-04T14:18:53.535Z,4.70
2019-01-04T14:21:21.939Z,4.57
2019-01-04T14:23:50.348Z,4.43
2019-01-04T14:26:18.749Z,3.90
2019-01-04T14:28:47.153Z,3.63
2019-01-04T14:31:15.560Z,5.20
2019-01-04T14:33:43.972Z,4.30
2019-01-04T14:36:12.377Z,4.27
2019-01-04T14:38:40.784Z,4.43
2019-01-04T14:41:09.191Z,4.53
2019-01-04T14:43:37.717Z,4.40
2019-01-04T14:46:06.112Z,4.27
2019-01-04T14:48:34.533Z,4.40
2019-01-04T14:51:04.572Z,4.40
2019-01-04T14:53:32.972Z,3.73
2019-01-04T14:56:01.389Z,5.53
2019-01-04T14:58:29.822Z,3.90
2019-01-04T15:00:58.252Z,4.40
2019-01-04T15:03:26.666Z,4.47
2019-01-04T15:05:55.060Z,5.10
2019-01-04T15:08:23.468Z,3.80
2019-01-04T15:10:51.866Z,4.57
2019-01-04T15:13:20.264Z,4.23
2019-01-04T15:15:48.684Z,4.37
2019-01-04T15:18:17.084Z,4.03
2019-01-04T15:20:45.656Z,4.40
2019-01-04T15:23:14.059Z,3.87
2019-01-04T15:25:42.480Z,4.20
2019-01-04T15:28:11.253Z,4.60
2019-01-04T15:30:39.665Z,4.70
2019-01-04T15:33:08.073Z,4.00
2019-01-04T15:35:36.491Z,4.87
2019-01-04T15:38:06.331Z,4.70
2019-01-04T15:40:34.835Z,4.20
2019-01-04T15:43:03.225Z,3.93
2019-01-04T15:45:33.181Z,4.63
2019-01-04T15:48:01.577Z,3.90
2019-01-04T15:50:30.017Z,4.40
2019-01-04T15:52:58.674Z,4.23
2019-01-04T15:55:27.217Z,4.87
2019-01-04T15:57:55.620Z,4.00
2019-01-04T16:00:24.044Z,4.33
2019-01-04T16:02:52.453Z,3.90
2019-01-04T16:05:21.851Z,4.33
2019-01-04T16:07:50.253Z,3.77
2019-01-04T16:10:18.652Z,3.43
2019-01-04T16:12:47.073Z,4.03
2019-01-04T16:15:15.472Z,3.50
2019-01-04T16:17:43.877Z,4.17
2019-01-04T16:20:12.448Z,4.17
2019-01-04T16:22:40.868Z,4.70
2019-01-04T16:25:09.383Z,4.63
2019-01-04T16:27:37.804Z,3.87
2019-01-04T16:30:09.629Z,4.03
2019-01-04T16:32:38.037Z,4.00
2019-01-04T16:35:06.740Z,4.43
2019-01-04T16:37:35.161Z,5.30
2019-01-04T16:40:04.638Z,4.10
2019-01-04T16:42:33.066Z,4.30
2019-01-04T16:45:01.473Z,4.83
2019-01-04T16:47:29.887Z,5.37
2019-01-04T16:49:58.299Z,3.93
2019-01-04T16:52:27.117Z,4.97
2019-01-04T16:54:55.528Z,4.30
2019-01-04T16:57:23.982Z,4.37
2019-01-04T16:59:52.608Z,6.63
2019-01-04T17:02:21.824Z,3.50
2019-01-04T17:04:50.230Z,5.57
2019-01-04T17:07:18.647Z,4.10
2019-01-04T17:09:47.091Z,4.80
2019-01-04T17:12:15.521Z,4.17
2019-01-04T17:14:43.929Z,6.10
2019-01-04T17:17:12.361Z,2.93
2019-01-04T17:19:40.931Z,3.30
2019-01-04T17:22:09.429Z,4.00
2019-01-04T17:24:37.861Z,3.23
2019-01-04T17:27:06.266Z,5.37
2019-01-04T17:29:34.724Z,3.87
2019-01-04T17:32:03.704Z,3.80
2019-01-04T17:34:32.108Z,3.30
2019-01-04T17:37:00.512Z,3.30
2019-01-04T17:39:28.930Z,3.37
2019-01-04T17:41:57.337Z,3.80
2019-01-04T17:44:25.752Z,3.73
2019-01-04T17:46:55.863Z,3.73
2019-01-04T17:49:24.268Z,3.93
2019-01-04T17:51:52.753Z,3.20
2019-01-04T17:54:21.293Z,3.20
2019-01-04T17:56:49.700Z,3.40
2019-01-04T17:59:18.253Z,3.20
2019-01-04T18:01:46.656Z,3.10
2019-01-04T18:04:15.070Z,3.83
2019-01-04T18:06:43.468Z,3.80
2019-01-04T18:09:11.896Z,3.30
2019-01-04T18:11:40.295Z,3.43
2019-01-04T18:14:10.427Z,3.37
2019-01-04T18:16:38.832Z,4.30
2019-01-04T18:19:07.231Z,3.77
2019-01-04T18:21:35.652Z,3.60
2019-01-04T18:24:05.611Z,5.53
2019-01-04T18:26:35.670Z,5.40
2019-01-04T18:29:04.091Z,4.90
2019-01-04T18:31:32.498Z,3.63
2019-01-04T18:34:00.901Z,3.87
2019-01-04T18:36:29.317Z,4.23
2019-01-04T18:38:57.736Z,3.70
2019-01-04T18:41:26.346Z,4.07
2019-01-04T18:43:54.892Z,3.90
2019-01-04T18:46:23.314Z,3.37
2019-01-04T18:48:51.936Z,3.70
2019-01-04T18:51:20.350Z,5.80
2019-01-04T18:53:48.752Z,3.40
2019-01-04T18:56:17.169Z,3.73
2019-01-04T18:58:45.569Z,2.60
2019-01-04T19:01:13.983Z,3.77
2019-01-04T19:03:42.387Z,4.77
2019-01-04T19:06:10.820Z,4.93
2019-01-04T19:08:39.219Z,4.10
2019-01-04T19:11:09.152Z,4.07
2019-01-04T19:13:37.837Z,3.77
2019-01-04T19:16:06.471Z,3.63
2019-01-04T19:18:35.114Z,3.93
2019-01-04T19:21:03.569Z,3.13
2019-01-04T19:23:31.979Z,4.73
2019-01-04T19:26:00.424Z,5.07
2019-01-04T19:28:28.838Z,5.43
2019-01-04T19:30:57.231Z,3.30
2019-01-04T19:33:28.884Z,3.80
2019-01-04T19:35:57.293Z,5.07
2019-01-04T19:38:25.968Z,3.83
2019-01-04T19:40:54.952Z,4.80
2019-01-04T19:43:23.360Z,3.30
2019-01-04T19:45:51.800Z,3.43
2019-01-04T19:48:20.223Z,3.97
2019-01-04T19:50:48.638Z,4.53
2019-01-04T19:53:17.052Z,5.13
2019-01-04T19:55:45.452Z,4.70
2019-01-04T19:58:13.870Z,4.73
2019-01-04T20:00:42.275Z,3.80
2019-01-04T20:03:10.684Z,3.87
2019-01-04T20:05:46.345Z,4.07
2019-01-04T20:08:58.205Z,5.00
2019-01-04T20:12:12.436Z,4.13
2019-01-04T20:14:49.441Z,4.60
2019-01-04T20:17:23.366Z,5.10
2019-01-04T20:20:09.877Z,6.53
2019-01-04T20:22:56.475Z,5.77
2019-01-04T20:25:29.425Z,5.47
2019-01-04T20:28:02.376Z,5.40
2019-01-04T20:30:48.837Z,5.93
2019-01-04T20:33:24.831Z,6.43
2019-01-04T20:35:54.885Z,6.30
2019-01-04T20:38:41.270Z,5.40
2019-01-04T20:41:26.548Z,5.37
2019-01-04T20:43:56.837Z,5.23
2019-01-04T20:46:32.764Z,4.93
2019-01-04T20:49:11.826Z,4.50
2019-01-04T20:51:44.569Z,4.37
2019-01-04T20:54:26.816Z,4.33
2019-01-04T20:57:02.542Z,4.50
2019-01-04T20:59:48.748Z,3.80
2019-01-04T21:02:35.296Z,3.50
2019-01-04T21:05:21.706Z,3.53
2019-01-04T21:07:57.775Z,3.17
2019-01-04T21:10:44.300Z,2.87
2019-01-04T21:13:20.476Z,3.63
2019-01-04T21:16:06.907Z,3.30
2019-01-04T21:18:36.945Z,4.10
2019-01-04T21:21:06.996Z,3.30
2019-01-04T21:23:39.951Z,2.40
2019-01-04T21:26:12.965Z,1.87
2019-01-04T21:28:58.164Z,2.70
2019-01-04T21:31:42.887Z,2.87
2019-01-04T21:34:18.912Z,3.33
2019-01-04T21:36:57.747Z,2.90
2019-01-04T21:39:31.227Z,3.43
2019-01-04T21:42:07.029Z,3.10
2019-01-04T21:44:43.087Z,3.10
2019-01-04T21:47:25.226Z,4.07
2019-01-04T21:50:04.400Z,2.50
2019-01-04T21:52:50.693Z,3.70
2019-01-04T21:55:26.660Z,3.00
2019-01-04T21:57:56.733Z,4.30
2019-01-04T22:00:26.756Z,2.90
2019-01-04T22:02:56.809Z,3.70
2019-01-04T22:05:29.525Z,5.20
2019-01-04T22:08:17.841Z,4.10
2019-01-04T22:11:04.121Z,3.50
2019-01-04T22:13:49.311Z,4.37
2019-01-04T22:16:37.802Z,3.47
2019-01-04T22:19:23.264Z,3.80
2019-01-04T22:21:53.397Z,3.60
2019-01-04T22:24:40.016Z,3.20
2019-01-04T22:27:26.447Z,4.17
2019-01-04T22:30:11.604Z,4.23
2019-01-04T22:32:47.592Z,2.27
2019-01-04T22:35:23.307Z,1.60
2019-01-04T22:37:56.414Z,2.67
2019-01-04T22:40:42.914Z,3.00
2019-01-04T22:43:25.070Z,2.70
2019-01-04T22:45:57.713Z,2.70
2019-01-04T22:48:36.597Z,3.23
2019-01-04T22:51:18.725Z,2.80
2019-01-04T22:54:00.712Z,3.00
2019-01-04T22:56:42.648Z,3.37
2019-01-04T22:59:29.077Z,2.57
2019-01-04T23:02:15.804Z,3.17
2019-01-04T23:04:57.985Z,4.00
2019-01-04T23:07:30.714Z,3.37
2019-01-04T23:10:16.996Z,3.57
2019-01-04T23:12:50.072Z,4.70
2019-01-04T23:15:36.254Z,4.80
2019-01-04T23:18:18.415Z,4.43
2019-01-04T23:21:04.940Z,5.27
2019-01-04T23:23:50.849Z,5.87
2019-01-04T23:26:37.536Z,6.03
2019-01-04T23:29:07.598Z,6.03
2019-01-04T23:31:46.636Z,5.63
2019-01-04T23:34:31.632Z,6.70
2019-01-04T23:37:18.056Z,6.27
2019-01-04T23:39:57.233Z,6.37
2019-01-04T23:42:30.295Z,7.60
2019-01-04T23:45:03.379Z,5.70
2019-01-04T23:47:42.168Z,5.57
2019-01-04T23:50:12.664Z,4.70
2019-01-04T23:52:42.732Z,5.67
2019-01-04T23:55:12.796Z,5.27
2019-01-04T23:57:59.284Z,4.57
